createdAt,value
2018-02-21T00:05:59.689Z,-2.3
2018-02-21T00:17:41.181Z,-2.4
2018-02-21T00:39:07.931Z,-2.5
2018-02-21T00:51:32.886Z,-2.6
2018-02-21T01:04:36.725Z,-2.8
2018-02-21T01:17:08.473Z,-2.9
2018-02-21T01:28:56.660Z,-2.9
2018-02-21T01:50:57.967Z,-3.2
2018-02-21T02:01:09.868Z,-3.3
2018-02-21T02:12:34.722Z,-3.4
2018-02-21T02:24:53.655Z,-3.4
2018-02-21T02:36:52.941Z,-3.4
2018-02-21T02:47:36.077Z,-3.4
2018-02-21T03:00:28.925Z,-3.5
2018-02-21T03:13:10.956Z,-3.5
2018-02-21T03:25:01.410Z,-3.5
2018-02-21T03:36:50.646Z,-3.5
2018-02-21T03:47:05.994Z,-3.5
2018-02-21T03:58:06.880Z,-3.6
2018-02-21T04:22:57.058Z,-3.7
2018-02-21T04:36:00.249Z,-3.8
2018-02-21T04:48:58.956Z,-3.8
2018-02-21T05:02:54.365Z,-3.9
2018-02-21T05:15:06.448Z,-4.0
2018-02-21T05:38:01.262Z,-4.1
2018-02-21T05:50:15.044Z,-4.2
2018-02-21T06:03:37.799Z,-4.3
2018-02-21T06:17:17.656Z,-4.4
2018-02-21T06:29:38.662Z,-4.4
2018-02-21T06:42:14.981Z,-4.5
2018-02-21T06:52:27.313Z,-4.5
2018-02-21T07:04:47.704Z,-4.7
2018-02-21T07:17:44.713Z,-4.7
2018-02-21T07:27:59.491Z,-4.7
2018-02-21T07:41:02.058Z,-4.5
2018-02-21T07:56:08.714Z,-4.3
2018-02-21T08:08:13.171Z,-3.3
2018-02-21T08:18:27.523Z,-3.3
2018-02-21T08:28:42.174Z,-1.2
2018-02-21T08:38:54.664Z,0.7
2018-02-21T08:50:28.002Z,4.3
2018-02-21T09:01:46.788Z,4.3
2018-02-21T09:13:42.622Z,7.5
2018-02-21T09:37:24.772Z,7.9
2018-02-21T09:47:39.516Z,7.9
2018-02-21T09:58:01.257Z,7.0
2018-02-21T10:08:15.290Z,6.6
2018-02-21T10:19:04.333Z,7.5
2018-02-21T10:29:18.335Z,7.5
2018-02-21T10:40:06.667Z,11.0
2018-02-21T10:50:52.508Z,12.6
2018-02-21T11:01:38.517Z,14.0
2018-02-21T11:12:11.453Z,14.0
2018-02-21T11:22:57.440Z,15.2
2018-02-21T11:35:17.045Z,17.1
2018-02-21T11:47:30.785Z,17.1
2018-02-21T11:57:44.707Z,17.9
2018-02-21T12:07:59.317Z,18.4
2018-02-21T12:18:11.338Z,18.7
2018-02-21T12:28:26.009Z,18.6
2018-02-21T12:38:50.033Z,18.4
2018-02-21T12:49:04.526Z,18.2
2018-02-21T12:59:19.854Z,17.9
2018-02-21T13:09:36.203Z,17.8
2018-02-21T13:19:51.387Z,17.5
2018-02-21T13:30:06.733Z,17.3
2018-02-21T13:40:21.951Z,17.1
2018-02-21T13:51:07.816Z,16.8
2018-02-21T14:01:53.354Z,16.6
2018-02-21T14:12:08.499Z,16.6
2018-02-21T14:22:23.591Z,16.4
2018-02-21T14:32:38.853Z,16.1
2018-02-21T14:45:00.542Z,15.3
2018-02-21T14:55:17.672Z,15.3
2018-02-21T15:05:32.325Z,14.8
2018-02-21T15:16:32.908Z,14.3
2018-02-21T15:42:05.446Z,12.8
2018-02-21T15:52:22.473Z,12.8
2018-02-21T16:04:05.491Z,11.4
2018-02-21T16:14:54.278Z,10.6
2018-02-21T16:26:16.664Z,9.9
2018-02-21T16:37:08.688Z,9.2
2018-02-21T16:47:22.687Z,9.2
2018-02-21T17:08:27.617Z,7.2
2018-02-21T17:19:44.545Z,6.6
2018-02-21T17:32:17.496Z,5.9
2018-02-21T17:43:06.206Z,5.2
2018-02-21T17:54:29.202Z,4.7
2018-02-21T18:05:12.818Z,4.6
2018-02-21T18:28:22.532Z,3.6
2018-02-21T18:38:49.274Z,3.1
2018-02-21T18:57:09.174Z,2.3
2018-02-21T19:09:30.972Z,1.7
2018-02-21T19:20:10.104Z,1.7
2018-02-21T19:32:51.273Z,1.0
2018-02-21T19:55:51.422Z,0.7
2018-02-21T20:06:37.844Z,0.2
2018-02-21T20:27:43.848Z,-0.2
2018-02-21T20:39:44.444Z,-0.2
2018-02-21T21:20:32.115Z,-0.9
2018-02-21T21:46:50.278Z,-1.2
2018-02-21T22:37:01.543Z,-1.7
2018-02-21T23:29:59.840Z,-2.4
2018-02-21T23:58:01.987Z,-2.5
